sensor_id;sensor_type;location;lat;lon;timestamp;temperature;humidity
55785;DHT22;41709;52.536;5.688;2023-02-01T00:01:31;5.20;85.70
55785;DHT22;41709;52.536;5.688;2023-02-01T00:03:56;5.20;85.70
55785;DHT22;41709;52.536;5.688;2023-02-01T00:06:22;5.20;85.70
55785;DHT22;41709;52.536;5.688;2023-02-01T00:08:48;5.20;85.90
55785;DHT22;41709;52.536;5.688;2023-02-01T00:11:13;5.30;85.90
55785;DHT22;41709;52.536;5.688;2023-02-01T00:13:40;5.30;85.60
55785;DHT22;41709;52.536;5.688;2023-02-01T00:16:15;5.30;85.30
55785;DHT22;41709;52.536;5.688;2023-02-01T00:18:42;5.30;85.50
55785;DHT22;41709;52.536;5.688;2023-02-01T00:21:08;5.30;85.30
55785;DHT22;41709;52.536;5.688;2023-02-01T00:23:35;5.30;85.00
55785;DHT22;41709;52.536;5.688;2023-02-01T00:26:03;5.30;85.30
55785;DHT22;41709;52.536;5.688;2023-02-01T00:28:29;5.30;85.10
55785;DHT22;41709;52.536;5.688;2023-02-01T00:31:02;5.40;85.00
55785;DHT22;41709;52.536;5.688;2023-02-01T00:33:29;5.30;85.00
55785;DHT22;41709;52.536;5.688;2023-02-01T00:36:04;5.30;85.00
55785;DHT22;41709;52.536;5.688;2023-02-01T00:38:30;5.30;84.70
55785;DHT22;41709;52.536;5.688;2023-02-01T00:41:05;5.30;85.10
55785;DHT22;41709;52.536;5.688;2023-02-01T00:43:32;5.20;85.20
55785;DHT22;41709;52.536;5.688;2023-02-01T00:45:57;5.30;85.20
55785;DHT22;41709;52.536;5.688;2023-02-01T00:48:23;5.30;85.10
55785;DHT22;41709;52.536;5.688;2023-02-01T00:50:49;5.30;85.20
55785;DHT22;41709;52.536;5.688;2023-02-01T00:53:14;5.30;85.30
55785;DHT22;41709;52.536;5.688;2023-02-01T00:55:40;5.30;85.30
55785;DHT22;41709;52.536;5.688;2023-02-01T00:58:06;5.30;85.40
55785;DHT22;41709;52.536;5.688;2023-02-01T01:00:34;5.20;85.60
55785;DHT22;41709;52.536;5.688;2023-02-01T01:03:00;5.20;85.70
55785;DHT22;41709;52.536;5.688;2023-02-01T01:05:25;5.20;85.90
55785;DHT22;41709;52.536;5.688;2023-02-01T01:07:53;5.20;86.00
55785;DHT22;41709;52.536;5.688;2023-02-01T01:10:18;5.20;86.10
55785;DHT22;41709;52.536;5.688;2023-02-01T01:12:44;5.20;86.10
55785;DHT22;41709;52.536;5.688;2023-02-01T01:15:10;5.20;86.10
55785;DHT22;41709;52.536;5.688;2023-02-01T01:17:35;5.20;86.00
55785;DHT22;41709;52.536;5.688;2023-02-01T01:20:01;5.30;86.10
55785;DHT22;41709;52.536;5.688;2023-02-01T01:22:27;5.20;86.00
55785;DHT22;41709;52.536;5.688;2023-02-01T01:24:52;5.30;85.90
55785;DHT22;41709;52.536;5.688;2023-02-01T01:27:18;5.30;85.80
55785;DHT22;41709;52.536;5.688;2023-02-01T01:29:48;5.30;85.90
55785;DHT22;41709;52.536;5.688;2023-02-01T01:32:14;5.20;85.90
55785;DHT22;41709;52.536;5.688;2023-02-01T01:34:39;5.20;86.10
55785;DHT22;41709;52.536;5.688;2023-02-01T01:37:05;5.20;86.30
55785;DHT22;41709;52.536;5.688;2023-02-01T01:39:30;5.20;86.50
55785;DHT22;41709;52.536;5.688;2023-02-01T01:41:56;5.30;86.40
55785;DHT22;41709;52.536;5.688;2023-02-01T01:44:58;5.30;86.30
55785;DHT22;41709;52.536;5.688;2023-02-01T01:47:26;5.30;86.50
55785;DHT22;41709;52.536;5.688;2023-02-01T01:49:52;5.20;85.80
55785;DHT22;41709;52.536;5.688;2023-02-01T01:52:18;5.20;86.30
55785;DHT22;41709;52.536;5.688;2023-02-01T01:54:47;5.20;86.10
55785;DHT22;41709;52.536;5.688;2023-02-01T01:57:18;5.30;85.70
55785;DHT22;41709;52.536;5.688;2023-02-01T01:59:56;5.30;85.40
55785;DHT22;41709;52.536;5.688;2023-02-01T02:02:25;5.30;85.30
55785;DHT22;41709;52.536;5.688;2023-02-01T02:04:51;5.30;85.90
55785;DHT22;41709;52.536;5.688;2023-02-01T02:07:23;5.30;85.30
55785;DHT22;41709;52.536;5.688;2023-02-01T02:09:50;5.30;86.10
55785;DHT22;41709;52.536;5.688;2023-02-01T02:12:16;5.40;86.40
55785;DHT22;41709;52.536;5.688;2023-02-01T02:14:41;5.40;86.30
55785;DHT22;41709;52.536;5.688;2023-02-01T02:35:02;5.20;87.10
55785;DHT22;41709;52.536;5.688;2023-02-01T02:40:32;5.30;87.30
55785;DHT22;41709;52.536;5.688;2023-02-01T02:46:21;5.20;87.30
55785;DHT22;41709;52.536;5.688;2023-02-01T02:49:23;5.20;87.50
55785;DHT22;41709;52.536;5.688;2023-02-01T02:52:05;5.10;87.20
55785;DHT22;41709;52.536;5.688;2023-02-01T02:54:53;5.10;87.50
55785;DHT22;41709;52.536;5.688;2023-02-01T02:57:30;5.20;87.40
55785;DHT22;41709;52.536;5.688;2023-02-01T03:00:20;5.10;87.40
55785;DHT22;41709;52.536;5.688;2023-02-01T03:03:06;5.10;87.40
55785;DHT22;41709;52.536;5.688;2023-02-01T03:05:51;5.10;87.40
55785;DHT22;41709;52.536;5.688;2023-02-01T03:08:19;5.10;87.40
55785;DHT22;41709;52.536;5.688;2023-02-01T03:16:15;5.00;87.80
55785;DHT22;41709;52.536;5.688;2023-02-01T03:18:50;5.00;87.60
55785;DHT22;41709;52.536;5.688;2023-02-01T03:21:44;5.00;87.90
55785;DHT22;41709;52.536;5.688;2023-02-01T03:24:14;5.00;87.60
55785;DHT22;41709;52.536;5.688;2023-02-01T03:26:48;5.10;87.60
55785;DHT22;41709;52.536;5.688;2023-02-01T03:29:23;5.20;86.90
55785;DHT22;41709;52.536;5.688;2023-02-01T03:31:49;5.20;86.70
55785;DHT22;41709;52.536;5.688;2023-02-01T03:34:16;5.20;86.50
55785;DHT22;41709;52.536;5.688;2023-02-01T03:36:49;5.20;86.90
55785;DHT22;41709;52.536;5.688;2023-02-01T03:39:39;5.20;86.90
55785;DHT22;41709;52.536;5.688;2023-02-01T03:42:18;5.10;87.00
55785;DHT22;41709;52.536;5.688;2023-02-01T03:44:53;5.10;87.00
55785;DHT22;41709;52.536;5.688;2023-02-01T03:47:27;5.10;87.30
55785;DHT22;41709;52.536;5.688;2023-02-01T03:50:01;5.20;87.20
55785;DHT22;41709;52.536;5.688;2023-02-01T03:52:28;5.30;86.70
55785;DHT22;41709;52.536;5.688;2023-02-01T03:54:57;5.30;87.00
55785;DHT22;41709;52.536;5.688;2023-02-01T03:57:28;5.30;86.40
55785;DHT22;41709;52.536;5.688;2023-02-01T04:00:07;5.30;86.40
55785;DHT22;41709;52.536;5.688;2023-02-01T04:02:34;5.30;86.80
55785;DHT22;41709;52.536;5.688;2023-02-01T04:04:59;5.30;86.70
55785;DHT22;41709;52.536;5.688;2023-02-01T04:07:25;5.20;87.20
55785;DHT22;41709;52.536;5.688;2023-02-01T04:09:50;5.20;87.60
55785;DHT22;41709;52.536;5.688;2023-02-01T04:12:16;5.20;87.40
55785;DHT22;41709;52.536;5.688;2023-02-01T04:14:42;5.20;87.90
55785;DHT22;41709;52.536;5.688;2023-02-01T04:17:07;5.20;88.00
55785;DHT22;41709;52.536;5.688;2023-02-01T04:19:33;5.20;88.00
55785;DHT22;41709;52.536;5.688;2023-02-01T04:21:59;5.20;88.20
55785;DHT22;41709;52.536;5.688;2023-02-01T04:24:24;5.20;88.50
55785;DHT22;41709;52.536;5.688;2023-02-01T04:26:50;5.20;88.20
55785;DHT22;41709;52.536;5.688;2023-02-01T04:29:15;5.10;88.50
55785;DHT22;41709;52.536;5.688;2023-02-01T04:31:41;5.10;88.80
55785;DHT22;41709;52.536;5.688;2023-02-01T04:34:06;5.00;89.40
55785;DHT22;41709;52.536;5.688;2023-02-01T04:36:32;5.00;88.90
55785;DHT22;41709;52.536;5.688;2023-02-01T04:38:58;5.00;88.70
55785;DHT22;41709;52.536;5.688;2023-02-01T04:41:23;5.00;89.10
55785;DHT22;41709;52.536;5.688;2023-02-01T04:43:50;5.00;89.20
55785;DHT22;41709;52.536;5.688;2023-02-01T04:46:16;5.00;89.20
55785;DHT22;41709;52.536;5.688;2023-02-01T04:48:42;5.00;89.50
55785;DHT22;41709;52.536;5.688;2023-02-01T04:51:08;5.20;89.90
55785;DHT22;41709;52.536;5.688;2023-02-01T04:53:33;5.00;89.70
55785;DHT22;41709;52.536;5.688;2023-02-01T04:55:59;5.00;89.70
55785;DHT22;41709;52.536;5.688;2023-02-01T04:58:25;5.00;89.30
55785;DHT22;41709;52.536;5.688;2023-02-01T05:00:50;5.00;89.30
55785;DHT22;41709;52.536;5.688;2023-02-01T05:03:17;5.00;90.10
55785;DHT22;41709;52.536;5.688;2023-02-01T05:05:42;5.00;89.70
55785;DHT22;41709;52.536;5.688;2023-02-01T05:08:08;5.00;89.70
55785;DHT22;41709;52.536;5.688;2023-02-01T05:10:33;5.00;89.40
55785;DHT22;41709;52.536;5.688;2023-02-01T05:12:59;5.00;90.10
55785;DHT22;41709;52.536;5.688;2023-02-01T05:15:43;5.00;89.50
55785;DHT22;41709;52.536;5.688;2023-02-01T05:18:09;5.10;89.20
55785;DHT22;41709;52.536;5.688;2023-02-01T05:20:34;5.10;89.90
55785;DHT22;41709;52.536;5.688;2023-02-01T05:23:00;5.20;89.30
55785;DHT22;41709;52.536;5.688;2023-02-01T05:25:25;5.20;89.20
55785;DHT22;41709;52.536;5.688;2023-02-01T05:27:51;5.10;89.50
55785;DHT22;41709;52.536;5.688;2023-02-01T05:30:17;5.10;89.80
55785;DHT22;41709;52.536;5.688;2023-02-01T05:32:42;5.10;89.60
55785;DHT22;41709;52.536;5.688;2023-02-01T05:35:08;5.10;89.50
55785;DHT22;41709;52.536;5.688;2023-02-01T05:37:34;5.10;89.20
55785;DHT22;41709;52.536;5.688;2023-02-01T05:39:59;5.10;89.20
55785;DHT22;41709;52.536;5.688;2023-02-01T05:42:25;5.10;89.40
55785;DHT22;41709;52.536;5.688;2023-02-01T05:44:50;5.10;89.60
55785;DHT22;41709;52.536;5.688;2023-02-01T05:47:16;5.10;89.30
55785;DHT22;41709;52.536;5.688;2023-02-01T05:49:41;5.00;89.50
55785;DHT22;41709;52.536;5.688;2023-02-01T05:52:07;5.00;89.80
55785;DHT22;41709;52.536;5.688;2023-02-01T05:54:32;5.10;89.60
55785;DHT22;41709;52.536;5.688;2023-02-01T05:56:58;5.10;89.60
55785;DHT22;41709;52.536;5.688;2023-02-01T05:59:24;5.00;89.90
55785;DHT22;41709;52.536;5.688;2023-02-01T06:01:49;5.00;89.70
55785;DHT22;41709;52.536;5.688;2023-02-01T06:04:15;5.00;89.90
55785;DHT22;41709;52.536;5.688;2023-02-01T06:06:41;5.10;89.70
55785;DHT22;41709;52.536;5.688;2023-02-01T06:09:06;5.10;89.40
55785;DHT22;41709;52.536;5.688;2023-02-01T06:11:32;5.00;89.70
55785;DHT22;41709;52.536;5.688;2023-02-01T06:13:58;5.00;89.60
55785;DHT22;41709;52.536;5.688;2023-02-01T06:16:24;5.20;89.70
55785;DHT22;41709;52.536;5.688;2023-02-01T06:18:49;5.10;88.80
55785;DHT22;41709;52.536;5.688;2023-02-01T06:21:15;5.10;89.30
55785;DHT22;41709;52.536;5.688;2023-02-01T06:23:49;5.10;89.30
55785;DHT22;41709;52.536;5.688;2023-02-01T06:26:15;5.10;89.80
55785;DHT22;41709;52.536;5.688;2023-02-01T06:28:43;5.00;89.50
55785;DHT22;41709;52.536;5.688;2023-02-01T06:31:08;5.10;89.70
55785;DHT22;41709;52.536;5.688;2023-02-01T06:33:35;5.10;89.70
55785;DHT22;41709;52.536;5.688;2023-02-01T06:36:03;5.10;89.30
55785;DHT22;41709;52.536;5.688;2023-02-01T06:38:29;5.10;89.60
55785;DHT22;41709;52.536;5.688;2023-02-01T06:40:56;5.10;89.50
55785;DHT22;41709;52.536;5.688;2023-02-01T06:43:23;5.10;89.70
55785;DHT22;41709;52.536;5.688;2023-02-01T06:45:50;5.00;89.60
55785;DHT22;41709;52.536;5.688;2023-02-01T06:48:15;5.00;89.80
55785;DHT22;41709;52.536;5.688;2023-02-01T06:50:41;5.00;89.90
55785;DHT22;41709;52.536;5.688;2023-02-01T06:53:07;5.10;90.10
55785;DHT22;41709;52.536;5.688;2023-02-01T06:55:32;5.00;90.30
55785;DHT22;41709;52.536;5.688;2023-02-01T06:57:58;5.00;90.40
55785;DHT22;41709;52.536;5.688;2023-02-01T07:00:23;5.00;90.40
55785;DHT22;41709;52.536;5.688;2023-02-01T07:02:49;5.00;90.30
55785;DHT22;41709;52.536;5.688;2023-02-01T07:05:15;5.00;90.30
55785;DHT22;41709;52.536;5.688;2023-02-01T07:07:41;5.00;90.20
55785;DHT22;41709;52.536;5.688;2023-02-01T07:10:07;5.00;90.40
55785;DHT22;41709;52.536;5.688;2023-02-01T07:12:33;4.90;90.50
55785;DHT22;41709;52.536;5.688;2023-02-01T07:14:59;4.90;90.50
55785;DHT22;41709;52.536;5.688;2023-02-01T07:17:24;4.80;90.70
55785;DHT22;41709;52.536;5.688;2023-02-01T07:19:50;4.90;90.90
55785;DHT22;41709;52.536;5.688;2023-02-01T07:22:18;4.80;90.90
55785;DHT22;41709;52.536;5.688;2023-02-01T07:24:44;4.80;90.90
55785;DHT22;41709;52.536;5.688;2023-02-01T07:27:09;4.90;90.80
55785;DHT22;41709;52.536;5.688;2023-02-01T07:29:35;4.90;91.00
55785;DHT22;41709;52.536;5.688;2023-02-01T07:32:01;4.90;90.70
55785;DHT22;41709;52.536;5.688;2023-02-01T07:34:28;4.90;90.80
55785;DHT22;41709;52.536;5.688;2023-02-01T07:36:53;4.80;90.90
55785;DHT22;41709;52.536;5.688;2023-02-01T07:39:19;4.80;90.80
55785;DHT22;41709;52.536;5.688;2023-02-01T07:41:46;4.80;90.80
55785;DHT22;41709;52.536;5.688;2023-02-01T07:44:11;4.80;90.70
55785;DHT22;41709;52.536;5.688;2023-02-01T07:46:37;4.80;90.80
55785;DHT22;41709;52.536;5.688;2023-02-01T07:49:05;4.70;90.80
55785;DHT22;41709;52.536;5.688;2023-02-01T07:51:30;4.70;90.90
55785;DHT22;41709;52.536;5.688;2023-02-01T07:53:56;4.70;90.90
55785;DHT22;41709;52.536;5.688;2023-02-01T07:56:22;4.70;90.90
55785;DHT22;41709;52.536;5.688;2023-02-01T07:58:52;4.70;90.90
55785;DHT22;41709;52.536;5.688;2023-02-01T08:01:20;4.70;90.90
55785;DHT22;41709;52.536;5.688;2023-02-01T08:03:51;4.70;91.00
55785;DHT22;41709;52.536;5.688;2023-02-01T08:06:17;4.70;91.00
55785;DHT22;41709;52.536;5.688;2023-02-01T08:08:45;4.70;91.00
55785;DHT22;41709;52.536;5.688;2023-02-01T08:11:13;4.70;91.00
55785;DHT22;41709;52.536;5.688;2023-02-01T08:13:39;4.80;91.00
55785;DHT22;41709;52.536;5.688;2023-02-01T08:16:07;4.80;90.90
55785;DHT22;41709;52.536;5.688;2023-02-01T08:18:34;4.80;91.10
55785;DHT22;41709;52.536;5.688;2023-02-01T08:21:05;4.80;90.90
55785;DHT22;41709;52.536;5.688;2023-02-01T08:23:30;4.90;91.00
55785;DHT22;41709;52.536;5.688;2023-02-01T08:26:12;5.00;90.80
55785;DHT22;41709;52.536;5.688;2023-02-01T08:28:39;5.00;90.90
55785;DHT22;41709;52.536;5.688;2023-02-01T08:31:10;5.00;91.00
55785;DHT22;41709;52.536;5.688;2023-02-01T08:33:36;4.90;90.90
55785;DHT22;41709;52.536;5.688;2023-02-01T08:36:06;5.10;91.10
55785;DHT22;41709;52.536;5.688;2023-02-01T08:38:31;5.00;90.90
55785;DHT22;41709;52.536;5.688;2023-02-01T08:40:57;5.00;90.60
55785;DHT22;41709;52.536;5.688;2023-02-01T08:43:23;5.10;90.50
55785;DHT22;41709;52.536;5.688;2023-02-01T08:45:50;5.00;90.40
55785;DHT22;41709;52.536;5.688;2023-02-01T08:48:15;5.00;90.50
55785;DHT22;41709;52.536;5.688;2023-02-01T08:50:41;5.00;90.70
55785;DHT22;41709;52.536;5.688;2023-02-01T08:53:06;5.00;90.70
55785;DHT22;41709;52.536;5.688;2023-02-01T08:55:32;5.00;90.70
55785;DHT22;41709;52.536;5.688;2023-02-01T08:57:57;5.00;90.70
55785;DHT22;41709;52.536;5.688;2023-02-01T09:00:23;5.10;90.70
55785;DHT22;41709;52.536;5.688;2023-02-01T09:02:49;5.10;90.70
55785;DHT22;41709;52.536;5.688;2023-02-01T09:05:14;5.10;90.70
55785;DHT22;41709;52.536;5.688;2023-02-01T09:07:42;5.10;90.60
55785;DHT22;41709;52.536;5.688;2023-02-01T09:10:08;5.00;91.20
55785;DHT22;41709;52.536;5.688;2023-02-01T09:12:35;5.00;90.70
55785;DHT22;41709;52.536;5.688;2023-02-01T09:15:01;5.00;90.70
55785;DHT22;41709;52.536;5.688;2023-02-01T09:17:27;5.20;90.80
55785;DHT22;41709;52.536;5.688;2023-02-01T09:19:53;5.10;90.60
55785;DHT22;41709;52.536;5.688;2023-02-01T09:22:19;5.10;90.60
55785;DHT22;41709;52.536;5.688;2023-02-01T09:24:45;5.10;90.70
55785;DHT22;41709;52.536;5.688;2023-02-01T09:27:11;5.20;90.80
55785;DHT22;41709;52.536;5.688;2023-02-01T09:29:36;5.20;90.40
55785;DHT22;41709;52.536;5.688;2023-02-01T09:32:02;5.20;90.50
55785;DHT22;41709;52.536;5.688;2023-02-01T09:34:28;5.30;90.40
55785;DHT22;41709;52.536;5.688;2023-02-01T09:36:54;5.20;90.60
55785;DHT22;41709;52.536;5.688;2023-02-01T09:39:19;5.20;90.40
55785;DHT22;41709;52.536;5.688;2023-02-01T09:42:16;5.20;90.40
55785;DHT22;41709;52.536;5.688;2023-02-01T09:47:29;5.20;91.60
55785;DHT22;41709;52.536;5.688;2023-02-01T09:50:02;5.20;92.00
55785;DHT22;41709;52.536;5.688;2023-02-01T09:52:40;5.10;92.20
55785;DHT22;41709;52.536;5.688;2023-02-01T09:55:18;5.00;92.40
55785;DHT22;41709;52.536;5.688;2023-02-01T09:57:59;5.00;92.60
55785;DHT22;41709;52.536;5.688;2023-02-01T10:00:30;5.00;92.70
55785;DHT22;41709;52.536;5.688;2023-02-01T10:02:58;4.90;92.90
55785;DHT22;41709;52.536;5.688;2023-02-01T10:05:54;4.90;93.60
55785;DHT22;41709;52.536;5.688;2023-02-01T10:11:50;4.80;93.60
55785;DHT22;41709;52.536;5.688;2023-02-01T10:16:56;4.70;93.90
55785;DHT22;41709;52.536;5.688;2023-02-01T10:22:10;4.70;94.20
55785;DHT22;41709;52.536;5.688;2023-02-01T10:24:39;4.60;94.30
55785;DHT22;41709;52.536;5.688;2023-02-01T10:29:38;4.60;94.30
55785;DHT22;41709;52.536;5.688;2023-02-01T10:32:32;4.60;94.10
55785;DHT22;41709;52.536;5.688;2023-02-01T10:35:04;4.50;94.10
55785;DHT22;41709;52.536;5.688;2023-02-01T10:37:34;4.60;94.10
55785;DHT22;41709;52.536;5.688;2023-02-01T10:40:23;4.60;94.20
55785;DHT22;41709;52.536;5.688;2023-02-01T10:42:51;4.50;93.90
55785;DHT22;41709;52.536;5.688;2023-02-01T10:45:24;4.60;93.80
55785;DHT22;41709;52.536;5.688;2023-02-01T10:47:52;4.70;93.70
55785;DHT22;41709;52.536;5.688;2023-02-01T10:50:25;4.60;93.50
55785;DHT22;41709;52.536;5.688;2023-02-01T10:52:58;4.50;93.40
55785;DHT22;41709;52.536;5.688;2023-02-01T10:55:43;4.60;93.60
55785;DHT22;41709;52.536;5.688;2023-02-01T10:58:28;4.70;93.40
55785;DHT22;41709;52.536;5.688;2023-02-01T11:01:07;4.70;93.30
55785;DHT22;41709;52.536;5.688;2023-02-01T11:06:29;4.80;93.10
55785;DHT22;41709;52.536;5.688;2023-02-01T11:09:01;4.80;92.90
55785;DHT22;41709;52.536;5.688;2023-02-01T11:14:18;4.80;93.00
55785;DHT22;41709;52.536;5.688;2023-02-01T11:19:43;4.80;93.10
55785;DHT22;41709;52.536;5.688;2023-02-01T11:22:09;4.90;92.80
55785;DHT22;41709;52.536;5.688;2023-02-01T11:24:37;4.90;92.80
55785;DHT22;41709;52.536;5.688;2023-02-01T11:27:12;4.90;92.70
55785;DHT22;41709;52.536;5.688;2023-02-01T11:29:44;5.00;93.00
55785;DHT22;41709;52.536;5.688;2023-02-01T11:32:13;5.00;92.90
55785;DHT22;41709;52.536;5.688;2023-02-01T11:34:45;5.00;92.70
55785;DHT22;41709;52.536;5.688;2023-02-01T11:37:30;5.10;92.70
55785;DHT22;41709;52.536;5.688;2023-02-01T11:39:58;5.10;92.30
55785;DHT22;41709;52.536;5.688;2023-02-01T11:42:25;5.20;92.20
55785;DHT22;41709;52.536;5.688;2023-02-01T11:44:51;5.20;92.50
55785;DHT22;41709;52.536;5.688;2023-02-01T11:47:40;5.20;93.00
55785;DHT22;41709;52.536;5.688;2023-02-01T11:50:17;5.20;93.20
55785;DHT22;41709;52.536;5.688;2023-02-01T11:53:09;5.30;92.80
55785;DHT22;41709;52.536;5.688;2023-02-01T11:55:56;5.20;92.60
55785;DHT22;41709;52.536;5.688;2023-02-01T12:01:35;5.20;93.00
55785;DHT22;41709;52.536;5.688;2023-02-01T12:06:54;5.20;92.60
55785;DHT22;41709;52.536;5.688;2023-02-01T12:09:39;5.30;92.60
55785;DHT22;41709;52.536;5.688;2023-02-01T12:12:31;5.30;92.60
55785;DHT22;41709;52.536;5.688;2023-02-01T12:26:35;5.40;92.00
55785;DHT22;41709;52.536;5.688;2023-02-01T12:35:27;5.50;91.80
55785;DHT22;41709;52.536;5.688;2023-02-01T12:38:08;5.60;91.70
55785;DHT22;41709;52.536;5.688;2023-02-01T12:40:40;5.60;92.00
55785;DHT22;41709;52.536;5.688;2023-02-01T12:43:36;5.60;92.00
55785;DHT22;41709;52.536;5.688;2023-02-01T12:46:17;5.60;92.00
55785;DHT22;41709;52.536;5.688;2023-02-01T12:48:53;5.50;92.20
55785;DHT22;41709;52.536;5.688;2023-02-01T12:51:23;5.60;92.10
55785;DHT22;41709;52.536;5.688;2023-02-01T12:54:01;5.50;92.00
55785;DHT22;41709;52.536;5.688;2023-02-01T12:56:50;5.60;91.90
55785;DHT22;41709;52.536;5.688;2023-02-01T12:59:25;5.60;92.00
55785;DHT22;41709;52.536;5.688;2023-02-01T13:02:00;5.60;91.80
55785;DHT22;41709;52.536;5.688;2023-02-01T13:04:31;5.60;91.90
55785;DHT22;41709;52.536;5.688;2023-02-01T13:07:22;5.70;92.10
55785;DHT22;41709;52.536;5.688;2023-02-01T13:10:17;5.70;92.00
55785;DHT22;41709;52.536;5.688;2023-02-01T13:12:54;5.80;91.80
55785;DHT22;41709;52.536;5.688;2023-02-01T13:15:27;5.80;91.50
55785;DHT22;41709;52.536;5.688;2023-02-01T13:17:57;5.70;91.80
55785;DHT22;41709;52.536;5.688;2023-02-01T13:20:31;5.70;92.00
55785;DHT22;41709;52.536;5.688;2023-02-01T13:23:29;5.70;92.10
55785;DHT22;41709;52.536;5.688;2023-02-01T13:25:55;5.70;92.10
55785;DHT22;41709;52.536;5.688;2023-02-01T13:39:48;5.90;92.20
55785;DHT22;41709;52.536;5.688;2023-02-01T13:42:19;5.80;92.20
55785;DHT22;41709;52.536;5.688;2023-02-01T13:45:17;5.90;92.20
55785;DHT22;41709;52.536;5.688;2023-02-01T13:47:46;5.90;91.90
55785;DHT22;41709;52.536;5.688;2023-02-01T13:50:34;5.90;91.90
55785;DHT22;41709;52.536;5.688;2023-02-01T13:56:01;6.00;91.30
55785;DHT22;41709;52.536;5.688;2023-02-01T13:58:36;6.10;91.30
55785;DHT22;41709;52.536;5.688;2023-02-01T14:03:54;6.20;91.30
55785;DHT22;41709;52.536;5.688;2023-02-01T14:11:50;6.40;91.10
55785;DHT22;41709;52.536;5.688;2023-02-01T14:16:43;6.40;91.00
55785;DHT22;41709;52.536;5.688;2023-02-01T14:21:54;6.30;90.90
55785;DHT22;41709;52.536;5.688;2023-02-01T14:24:34;6.40;91.10
55785;DHT22;41709;52.536;5.688;2023-02-01T14:27:20;6.40;91.10
55785;DHT22;41709;52.536;5.688;2023-02-01T14:30:07;6.30;91.00
55785;DHT22;41709;52.536;5.688;2023-02-01T14:32:40;6.30;90.90
55785;DHT22;41709;52.536;5.688;2023-02-01T14:35:20;6.30;91.30
55785;DHT22;41709;52.536;5.688;2023-02-01T14:37:46;6.30;91.30
55785;DHT22;41709;52.536;5.688;2023-02-01T14:40:25;6.30;91.10
55785;DHT22;41709;52.536;5.688;2023-02-01T14:42:52;6.30;91.10
55785;DHT22;41709;52.536;5.688;2023-02-01T14:55:49;6.30;91.10
55785;DHT22;41709;52.536;5.688;2023-02-01T15:01:02;6.30;90.90
55785;DHT22;41709;52.536;5.688;2023-02-01T15:14:22;6.20;91.00
55785;DHT22;41709;52.536;5.688;2023-02-01T15:16:48;6.20;90.90
55785;DHT22;41709;52.536;5.688;2023-02-01T15:19:20;6.30;90.70
55785;DHT22;41709;52.536;5.688;2023-02-01T15:21:51;6.20;90.30
55785;DHT22;41709;52.536;5.688;2023-02-01T15:24:26;6.30;90.50
55785;DHT22;41709;52.536;5.688;2023-02-01T15:26:53;6.30;90.30
55785;DHT22;41709;52.536;5.688;2023-02-01T15:29:22;6.20;89.90
55785;DHT22;41709;52.536;5.688;2023-02-01T15:31:52;6.20;89.70
55785;DHT22;41709;52.536;5.688;2023-02-01T15:34:19;6.10;88.20
55785;DHT22;41709;52.536;5.688;2023-02-01T15:36:46;6.10;87.50
55785;DHT22;41709;52.536;5.688;2023-02-01T15:39:24;6.10;87.60
55785;DHT22;41709;52.536;5.688;2023-02-01T15:41:59;6.10;88.40
55785;DHT22;41709;52.536;5.688;2023-02-01T15:46:57;6.10;90.00
55785;DHT22;41709;52.536;5.688;2023-02-01T15:49:31;6.10;90.20
55785;DHT22;41709;52.536;5.688;2023-02-01T15:52:01;6.10;90.50
55785;DHT22;41709;52.536;5.688;2023-02-01T15:54:31;7.20;90.90
55785;DHT22;41709;52.536;5.688;2023-02-01T15:57:00;6.00;90.90
55785;DHT22;41709;52.536;5.688;2023-02-01T15:59:37;6.00;91.10
55785;DHT22;41709;52.536;5.688;2023-02-01T16:02:34;5.90;91.40
55785;DHT22;41709;52.536;5.688;2023-02-01T16:05:02;5.90;91.70
55785;DHT22;41709;52.536;5.688;2023-02-01T16:07:32;5.90;91.80
55785;DHT22;41709;52.536;5.688;2023-02-01T16:10:01;5.90;92.20
55785;DHT22;41709;52.536;5.688;2023-02-01T16:12:44;5.90;92.20
55785;DHT22;41709;52.536;5.688;2023-02-01T16:15:10;6.10;92.10
55785;DHT22;41709;52.536;5.688;2023-02-01T16:17:35;6.10;92.00
55785;DHT22;41709;52.536;5.688;2023-02-01T16:20:01;6.10;92.10
55785;DHT22;41709;52.536;5.688;2023-02-01T16:22:27;6.00;92.20
55785;DHT22;41709;52.536;5.688;2023-02-01T16:24:52;6.60;92.30
55785;DHT22;41709;52.536;5.688;2023-02-01T16:27:18;6.20;92.20
55785;DHT22;41709;52.536;5.688;2023-02-01T16:29:43;6.10;92.10
55785;DHT22;41709;52.536;5.688;2023-02-01T16:32:21;6.10;92.00
55785;DHT22;41709;52.536;5.688;2023-02-01T16:34:47;6.00;91.90
55785;DHT22;41709;52.536;5.688;2023-02-01T16:37:16;6.10;91.80
55785;DHT22;41709;52.536;5.688;2023-02-01T16:39:44;6.10;91.60
55785;DHT22;41709;52.536;5.688;2023-02-01T16:42:14;6.20;91.40
55785;DHT22;41709;52.536;5.688;2023-02-01T16:44:40;6.10;91.30
55785;DHT22;41709;52.536;5.688;2023-02-01T16:47:18;6.10;91.00
55785;DHT22;41709;52.536;5.688;2023-02-01T16:49:44;6.10;90.80
55785;DHT22;41709;52.536;5.688;2023-02-01T16:52:17;6.20;90.60
55785;DHT22;41709;52.536;5.688;2023-02-01T16:54:44;6.20;90.50
55785;DHT22;41709;52.536;5.688;2023-02-01T16:57:14;6.30;90.40
55785;DHT22;41709;52.536;5.688;2023-02-01T16:59:41;6.40;90.50
55785;DHT22;41709;52.536;5.688;2023-02-01T17:02:11;6.30;91.30
55785;DHT22;41709;52.536;5.688;2023-02-01T17:04:37;6.10;91.80
55785;DHT22;41709;52.536;5.688;2023-02-01T17:07:03;6.00;92.00
55785;DHT22;41709;52.536;5.688;2023-02-01T17:09:37;6.00;92.20
55785;DHT22;41709;52.536;5.688;2023-02-01T17:12:04;6.00;92.00
55785;DHT22;41709;52.536;5.688;2023-02-01T17:14:31;5.90;91.90
55785;DHT22;41709;52.536;5.688;2023-02-01T17:16:59;6.00;91.80
55785;DHT22;41709;52.536;5.688;2023-02-01T17:19:25;6.00;92.10
55785;DHT22;41709;52.536;5.688;2023-02-01T17:21:53;6.00;92.40
55785;DHT22;41709;52.536;5.688;2023-02-01T17:24:23;6.00;92.40
55785;DHT22;41709;52.536;5.688;2023-02-01T17:26:49;6.00;92.60
55785;DHT22;41709;52.536;5.688;2023-02-01T17:29:16;6.00;92.70
55785;DHT22;41709;52.536;5.688;2023-02-01T17:31:45;6.00;92.50
55785;DHT22;41709;52.536;5.688;2023-02-01T17:34:12;5.90;92.40
55785;DHT22;41709;52.536;5.688;2023-02-01T17:36:40;5.90;92.50
55785;DHT22;41709;52.536;5.688;2023-02-01T17:39:07;5.80;92.60
55785;DHT22;41709;52.536;5.688;2023-02-01T17:41:33;5.70;92.80
55785;DHT22;41709;52.536;5.688;2023-02-01T17:43:59;5.80;93.00
55785;DHT22;41709;52.536;5.688;2023-02-01T17:46:25;5.60;93.00
55785;DHT22;41709;52.536;5.688;2023-02-01T17:48:55;5.60;93.40
55785;DHT22;41709;52.536;5.688;2023-02-01T17:51:23;5.70;93.00
55785;DHT22;41709;52.536;5.688;2023-02-01T17:53:49;5.70;93.00
55785;DHT22;41709;52.536;5.688;2023-02-01T17:56:20;5.70;92.90
55785;DHT22;41709;52.536;5.688;2023-02-01T17:58:46;5.70;93.00
55785;DHT22;41709;52.536;5.688;2023-02-01T18:01:23;5.70;92.90
55785;DHT22;41709;52.536;5.688;2023-02-01T18:03:49;5.80;92.80
55785;DHT22;41709;52.536;5.688;2023-02-01T18:06:18;5.80;92.80
55785;DHT22;41709;52.536;5.688;2023-02-01T18:08:45;5.80;92.80
55785;DHT22;41709;52.536;5.688;2023-02-01T18:11:14;5.80;92.70
55785;DHT22;41709;52.536;5.688;2023-02-01T18:13:41;5.80;92.60